createdAt,value
2018-05-31T00:04:21.163Z,100336.03
2018-05-31T00:06:52.881Z,100338.85
2018-05-31T00:09:21.927Z,100337.63
2018-05-31T00:11:50.918Z,100340.42
2018-05-31T00:14:19.995Z,100337.16
2018-05-31T00:16:49.025Z,100339.83
2018-05-31T00:19:18.051Z,100339.75
2018-05-31T00:21:47.158Z,100341.41
2018-05-31T00:24:16.499Z,100336.66
2018-05-31T00:29:43.318Z,100336.50
2018-05-31T00:32:12.706Z,100339.40
2018-05-31T00:34:41.700Z,100338.39
2018-05-31T00:37:11.097Z,100334.32
2018-05-31T00:39:40.377Z,100339.82
2018-05-31T00:42:09.388Z,100334.04
2018-05-31T00:44:38.413Z,100332.60
2018-05-31T00:47:07.447Z,100332.70
2018-05-31T00:49:36.453Z,100328.75
2018-05-31T00:52:05.684Z,100324.49
2018-05-31T00:54:34.965Z,100333.72
2018-05-31T00:57:03.929Z,100325.31
2018-05-31T00:59:33.018Z,100319.31
2018-05-31T01:02:02.060Z,100324.27
2018-05-31T01:04:31.412Z,100318.89
2018-05-31T01:07:00.651Z,100316.52
2018-05-31T01:09:29.975Z,100322.00
2018-05-31T01:11:59.284Z,100314.47
2018-05-31T01:14:28.527Z,100316.84
2018-05-31T01:16:57.525Z,100316.84
2018-05-31T01:19:26.580Z,100324.30
2018-05-31T01:21:56.090Z,100326.28
2018-05-31T01:24:25.107Z,100317.06
2018-05-31T01:26:53.907Z,100319.86
2018-05-31T01:29:23.366Z,100318.71
2018-05-31T01:31:52.587Z,100308.67
2018-05-31T01:34:21.590Z,100309.41
2018-05-31T01:36:50.569Z,100308.39
2018-05-31T01:39:21.046Z,100311.70
2018-05-31T01:41:51.988Z,100310.23
2018-05-31T01:44:22.930Z,100304.87
2018-05-31T01:46:52.603Z,100312.52
2018-05-31T01:49:23.338Z,100308.17
2018-05-31T01:51:54.563Z,100313.44
2018-05-31T01:54:25.309Z,100306.43
2018-05-31T01:56:54.571Z,100309.84
2018-05-31T01:59:25.259Z,100313.25
2018-05-31T02:01:57.053Z,100306.83
2018-05-31T02:04:28.885Z,100303.62
2018-05-31T02:06:58.937Z,100303.01
2018-05-31T02:09:29.982Z,100309.30
2018-05-31T02:12:01.907Z,100309.71
2018-05-31T02:14:32.048Z,100307.25
2018-05-31T02:17:03.561Z,100299.37
2018-05-31T02:19:34.228Z,100304.95
2018-05-31T02:22:05.069Z,100296.06
2018-05-31T02:24:36.182Z,100303.77
2018-05-31T02:27:07.091Z,100297.87
2018-05-31T02:29:38.246Z,100304.17
2018-05-31T02:32:09.013Z,100305.00
2018-05-31T02:34:39.783Z,100300.23
2018-05-31T02:37:10.475Z,100293.02
2018-05-31T02:39:41.585Z,100300.25
2018-05-31T02:42:12.450Z,100300.44
2018-05-31T02:44:44.348Z,100294.66
2018-05-31T02:47:14.999Z,100301.78
2018-05-31T02:49:46.046Z,100300.73
2018-05-31T02:52:17.736Z,100302.89
2018-05-31T02:54:48.572Z,100301.34
2018-05-31T02:57:19.240Z,100303.83
2018-05-31T02:59:50.184Z,100299.98
2018-05-31T03:02:20.975Z,100309.61
2018-05-31T03:04:52.834Z,100312.16
2018-05-31T03:07:23.817Z,100311.95
2018-05-31T03:09:54.766Z,100309.27
2018-05-31T03:12:25.553Z,100311.42
2018-05-31T03:14:54.592Z,100313.58
2018-05-31T03:17:25.718Z,100321.84
2018-05-31T03:19:56.538Z,100320.07
2018-05-31T03:22:27.610Z,100323.89
2018-05-31T03:24:57.723Z,100307.33
2018-05-31T03:27:28.358Z,100318.63
2018-05-31T03:29:59.611Z,100311.06
2018-05-31T03:32:31.601Z,100319.98
2018-05-31T03:35:02.602Z,100317.07
2018-05-31T03:37:33.716Z,100313.14
2018-05-31T03:40:04.085Z,100318.20
2018-05-31T03:42:34.950Z,100318.81
2018-05-31T03:45:05.617Z,100320.89
2018-05-31T03:47:36.692Z,100311.86
2018-05-31T03:50:07.608Z,100317.83
2018-05-31T03:52:38.168Z,100320.82
2018-05-31T03:55:08.924Z,100319.47
2018-05-31T03:57:39.792Z,100314.05
2018-05-31T04:00:10.638Z,100319.11
2018-05-31T04:02:41.472Z,100317.22
2018-05-31T04:05:12.174Z,100313.36
2018-05-31T04:07:42.853Z,100285.53
2018-05-31T04:10:13.988Z,100313.31
2018-05-31T04:12:44.601Z,100318.08
2018-05-31T04:15:15.618Z,100314.03
2018-05-31T04:17:46.543Z,100309.04
2018-05-31T04:20:17.620Z,100312.04
2018-05-31T04:22:48.449Z,100314.94
2018-05-31T04:25:19.743Z,100314.75
2018-05-31T04:27:51.776Z,100318.36
2018-05-31T04:30:21.045Z,100314.19
2018-05-31T04:32:53.233Z,100317.30
2018-05-31T04:35:24.867Z,100320.50
2018-05-31T04:37:55.482Z,100320.91
2018-05-31T04:40:25.285Z,100319.46
2018-05-31T04:42:55.898Z,100320.30
2018-05-31T04:45:28.641Z,100320.98
2018-05-31T04:47:58.233Z,100318.86
2018-05-31T04:50:30.400Z,100313.61
2018-05-31T04:53:01.314Z,100311.39
2018-05-31T04:55:33.172Z,100314.86
2018-05-31T04:58:02.170Z,100319.46
2018-05-31T05:00:31.274Z,100317.55
2018-05-31T05:03:00.612Z,100324.85
2018-05-31T05:05:32.296Z,100328.77
2018-05-31T05:08:03.118Z,100324.12
2018-05-31T05:10:34.300Z,100327.25
2018-05-31T05:13:04.220Z,100324.58
2018-05-31T05:15:35.132Z,100330.94
2018-05-31T05:18:05.465Z,100329.05
2018-05-31T05:20:36.709Z,100332.76
2018-05-31T05:23:07.620Z,100330.83
2018-05-31T05:25:36.638Z,100328.66
2018-05-31T05:28:05.650Z,100333.66
2018-05-31T05:30:34.847Z,100333.15
2018-05-31T05:33:03.881Z,100328.63
2018-05-31T05:35:33.090Z,100332.80
2018-05-31T05:38:02.125Z,100329.50
2018-05-31T05:40:31.082Z,100337.48
2018-05-31T05:43:00.380Z,100335.15
2018-05-31T05:45:29.388Z,100342.48
2018-05-31T05:47:58.671Z,100341.55
2018-05-31T05:50:27.672Z,100346.92
2018-05-31T05:52:56.700Z,100347.75
2018-05-31T05:55:25.906Z,100349.06
2018-05-31T05:57:55.013Z,100357.50
2018-05-31T06:00:24.132Z,100352.05
2018-05-31T06:02:53.459Z,100361.13
2018-05-31T06:05:22.525Z,100354.59
2018-05-31T06:07:51.544Z,100360.88
2018-05-31T06:10:20.591Z,100357.84
2018-05-31T06:12:49.795Z,100359.98
2018-05-31T06:15:18.786Z,100359.02
2018-05-31T06:17:47.799Z,100360.84
2018-05-31T06:20:16.793Z,100358.16
2018-05-31T06:22:45.973Z,100355.30
2018-05-31T06:25:14.959Z,100351.20
2018-05-31T06:27:43.958Z,100353.58
2018-05-31T06:30:12.959Z,100356.28
2018-05-31T06:32:42.287Z,100353.37
2018-05-31T06:35:11.121Z,100350.09
2018-05-31T06:37:40.133Z,100356.59
2018-05-31T06:40:09.277Z,100359.94
2018-05-31T06:42:38.598Z,100357.91
2018-05-31T06:45:07.646Z,100351.55
2018-05-31T06:47:36.656Z,100357.77
2018-05-31T06:50:06.697Z,100359.45
2018-05-31T06:52:35.898Z,100346.80
2018-05-31T06:55:04.927Z,100347.05
2018-05-31T06:57:33.943Z,100349.58
2018-05-31T07:00:03.289Z,100344.40
2018-05-31T07:02:32.563Z,100343.20
2018-05-31T07:05:01.805Z,100343.80
2018-05-31T07:07:30.848Z,100352.04
2018-05-31T07:09:59.938Z,100354.07
2018-05-31T07:12:28.927Z,100354.82
2018-05-31T07:14:57.896Z,100354.78
2018-05-31T07:17:26.974Z,100351.25
2018-05-31T07:19:56.011Z,100351.66
2018-05-31T07:22:25.065Z,100351.27
2018-05-31T07:24:54.050Z,100350.89
2018-05-31T07:27:23.286Z,100352.52
2018-05-31T07:29:52.534Z,100353.84
2018-05-31T07:32:21.742Z,100357.48
2018-05-31T07:34:51.558Z,100355.87
2018-05-31T07:37:20.566Z,100351.56
2018-05-31T07:39:49.571Z,100354.89
2018-05-31T07:42:18.789Z,100351.61
2018-05-31T07:44:48.049Z,100350.34
2018-05-31T07:47:17.321Z,100353.75
2018-05-31T07:49:46.334Z,100356.09
2018-05-31T07:52:15.544Z,100358.29
2018-05-31T07:54:44.794Z,100360.05
2018-05-31T07:57:14.017Z,100359.52
2018-05-31T07:59:43.022Z,100363.25
2018-05-31T08:02:12.033Z,100364.70
2018-05-31T08:04:41.051Z,100364.77
2018-05-31T08:07:10.066Z,100362.51
2018-05-31T08:09:39.322Z,100366.53
2018-05-31T08:12:08.380Z,100362.19
2018-05-31T08:14:37.494Z,100358.95
2018-05-31T08:17:06.803Z,100362.23
2018-05-31T08:19:35.840Z,100355.22
2018-05-31T08:22:05.269Z,100357.98
2018-05-31T08:24:34.346Z,100360.44
2018-05-31T08:27:03.350Z,100362.44
2018-05-31T08:29:32.322Z,100360.33
2018-05-31T08:32:01.705Z,100363.52
2018-05-31T08:34:31.001Z,100356.28
2018-05-31T08:36:59.987Z,100358.55
2018-05-31T08:39:29.001Z,100361.70
2018-05-31T08:41:58.036Z,100352.44
2018-05-31T08:44:27.082Z,100352.01
2018-05-31T08:46:56.104Z,100353.83
2018-05-31T08:49:25.129Z,100356.81
2018-05-31T08:51:54.099Z,100353.98
2018-05-31T08:54:24.318Z,100350.88
2018-05-31T08:56:55.853Z,100345.28
2018-05-31T08:59:26.688Z,100350.30
2018-05-31T09:01:57.710Z,100351.42
2018-05-31T09:04:28.552Z,100345.87
2018-05-31T09:07:00.185Z,100337.58
2018-05-31T09:09:30.989Z,100342.89
2018-05-31T09:12:01.458Z,100335.39
2018-05-31T09:14:32.541Z,100340.50
2018-05-31T09:17:02.874Z,100335.73
2018-05-31T09:19:33.474Z,100338.80
2018-05-31T09:22:04.159Z,100335.39
2018-05-31T09:24:33.119Z,100341.58
2018-05-31T09:27:03.329Z,100342.79
2018-05-31T09:29:34.460Z,100335.73
2018-05-31T09:32:05.669Z,100337.53
2018-05-31T09:34:36.498Z,100335.80
2018-05-31T09:37:07.502Z,100336.20
2018-05-31T09:39:38.395Z,100345.48
2018-05-31T09:42:09.328Z,100341.65
2018-05-31T09:44:40.502Z,100341.65
2018-05-31T09:47:12.390Z,100332.68
2018-05-31T09:49:41.374Z,100333.08
2018-05-31T09:52:10.602Z,100336.23
2018-05-31T09:54:39.665Z,100332.27
2018-05-31T09:57:08.638Z,100336.34
2018-05-31T09:59:37.625Z,100342.34
2018-05-31T10:02:06.694Z,100335.23
2018-05-31T10:04:35.687Z,100337.28
2018-05-31T10:07:05.012Z,100337.16
2018-05-31T10:09:34.002Z,100327.27
2018-05-31T10:12:02.990Z,100331.17
2018-05-31T10:14:32.015Z,100331.42
2018-05-31T10:17:01.078Z,100323.06
2018-05-31T10:19:30.049Z,100325.95
2018-05-31T10:21:59.198Z,100317.73
2018-05-31T10:24:28.220Z,100314.95
2018-05-31T10:26:57.258Z,100319.44
2018-05-31T10:29:26.238Z,100320.48
2018-05-31T10:31:55.222Z,100316.84
2018-05-31T10:34:24.295Z,100314.73
2018-05-31T10:36:53.629Z,100318.24
2018-05-31T10:39:22.682Z,100309.88
2018-05-31T10:41:51.854Z,100305.24
2018-05-31T10:44:20.898Z,100299.72
2018-05-31T10:46:50.220Z,100291.39
2018-05-31T10:49:19.242Z,100295.47
2018-05-31T10:51:48.323Z,100293.28
2018-05-31T10:54:17.609Z,100290.70
2018-05-31T10:56:46.663Z,100284.30
2018-05-31T10:59:16.325Z,100288.45
2018-05-31T11:01:45.769Z,100285.78
2018-05-31T11:04:14.815Z,100289.30
2018-05-31T11:06:46.084Z,100275.06
2018-05-31T11:09:16.000Z,100287.73
2018-05-31T11:11:45.694Z,100284.20
2018-05-31T11:14:18.876Z,100287.13
2018-05-31T11:16:50.675Z,100276.91
2018-05-31T11:19:20.257Z,100276.32
2018-05-31T11:21:50.286Z,100281.45
2018-05-31T11:24:22.188Z,100283.64
2018-05-31T11:26:52.370Z,100283.06
2018-05-31T11:29:22.482Z,100282.48
2018-05-31T11:31:53.031Z,100276.61
2018-05-31T11:34:23.507Z,100269.99
2018-05-31T11:36:54.138Z,100263.08
2018-05-31T11:39:23.154Z,100269.82
2018-05-31T11:57:31.060Z,100232.69
2018-05-31T12:00:00.036Z,100233.80
2018-05-31T12:02:29.053Z,100241.03
2018-05-31T12:04:58.076Z,100227.63
2018-05-31T12:07:27.119Z,100229.50
2018-05-31T12:09:56.101Z,100231.49
2018-05-31T12:12:25.158Z,100227.09
2018-05-31T12:14:54.206Z,100218.17
2018-05-31T12:17:23.267Z,100220.31
2018-05-31T12:19:52.904Z,100224.45
2018-05-31T12:22:21.919Z,100215.44
2018-05-31T12:24:50.900Z,100209.67
2018-05-31T12:27:19.921Z,100206.75
2018-05-31T12:29:48.933Z,100206.30
2018-05-31T12:32:18.019Z,100207.00
2018-05-31T12:34:47.168Z,100200.59
2018-05-31T12:37:16.199Z,100201.98
2018-05-31T12:39:45.201Z,100197.67
2018-05-31T12:42:14.207Z,100202.16
2018-05-31T12:44:43.174Z,100195.30
2018-05-31T12:47:12.204Z,100195.70
2018-05-31T12:49:41.192Z,100193.22
2018-05-31T12:52:10.162Z,100190.14
2018-05-31T12:54:39.154Z,100187.34
2018-05-31T12:57:08.021Z,100184.35
2018-05-31T12:59:37.037Z,100174.20
2018-05-31T13:02:05.987Z,100174.45
2018-05-31T13:04:34.997Z,100178.79
2018-05-31T13:07:03.980Z,100179.96
2018-05-31T13:09:32.975Z,100181.14
2018-05-31T13:12:01.987Z,100184.84
2018-05-31T13:14:30.976Z,100178.09
2018-05-31T13:17:00.366Z,100180.67
2018-05-31T13:19:29.517Z,100187.03
2018-05-31T13:21:58.474Z,100177.14
2018-05-31T13:24:27.443Z,100169.09
2018-05-31T13:26:56.823Z,100170.65
2018-05-31T13:29:25.800Z,100163.25
2018-05-31T13:31:54.766Z,100159.16
2018-05-31T13:34:23.773Z,100156.91
2018-05-31T13:36:52.764Z,100161.50
2018-05-31T13:39:21.726Z,100156.36
2018-05-31T13:41:50.764Z,100149.73
2018-05-31T13:44:19.831Z,100158.30
2018-05-31T13:46:48.826Z,100161.36
2018-05-31T13:49:18.433Z,100155.76
2018-05-31T13:51:47.425Z,100162.57
2018-05-31T13:54:16.423Z,100161.99
2018-05-31T13:56:45.357Z,100156.20
2018-05-31T13:59:14.336Z,100154.83
2018-05-31T14:01:43.305Z,100156.91
2018-05-31T14:04:12.336Z,100156.38
2018-05-31T14:06:41.306Z,100150.27
2018-05-31T14:09:10.346Z,100148.23
2018-05-31T14:11:39.318Z,100155.98
2018-05-31T14:14:08.305Z,100149.58
2018-05-31T14:16:37.275Z,100151.84
2018-05-31T14:19:06.226Z,100152.44
2018-05-31T14:21:35.243Z,100152.92
2018-05-31T14:24:04.209Z,100148.55
2018-05-31T14:26:34.091Z,100149.73
2018-05-31T14:29:03.116Z,100152.06
2018-05-31T14:31:32.110Z,100148.95
2018-05-31T14:34:02.031Z,100152.31
2018-05-31T14:36:31.576Z,100146.92
2018-05-31T14:39:00.551Z,100145.08
2018-05-31T14:41:29.245Z,100143.42
2018-05-31T14:43:58.248Z,100149.59
2018-05-31T14:46:27.216Z,100145.14
2018-05-31T14:48:56.222Z,100144.36
2018-05-31T14:51:25.218Z,100137.58
2018-05-31T14:53:54.233Z,100137.40
2018-05-31T14:56:23.448Z,100138.66
2018-05-31T14:58:53.023Z,100135.41
2018-05-31T15:01:22.003Z,100132.33
2018-05-31T15:03:51.011Z,100140.86
2018-05-31T15:06:19.987Z,100140.10
2018-05-31T15:08:48.993Z,100123.84
2018-05-31T15:11:17.971Z,100127.27
2018-05-31T15:13:46.964Z,100130.17
2018-05-31T15:16:16.807Z,100124.71
2018-05-31T15:18:45.616Z,100121.38
2018-05-31T15:21:14.489Z,100118.77
2018-05-31T15:23:43.509Z,100116.70
2018-05-31T15:26:12.540Z,100115.82
2018-05-31T15:28:41.543Z,100116.66
2018-05-31T15:31:10.548Z,100114.42
2018-05-31T15:33:39.539Z,100110.80
2018-05-31T15:36:08.510Z,100109.45
2018-05-31T15:38:37.593Z,100107.14
2018-05-31T15:41:06.571Z,100102.67
2018-05-31T15:43:35.550Z,100104.25
2018-05-31T15:46:04.625Z,100104.93
2018-05-31T15:48:33.595Z,100104.17
2018-05-31T15:51:02.605Z,100108.20
2018-05-31T15:53:31.685Z,100105.41
2018-05-31T15:56:00.820Z,100109.61
2018-05-31T15:58:29.794Z,100099.22
2018-05-31T16:00:58.792Z,100095.00
2018-05-31T16:03:27.771Z,100095.77
2018-05-31T16:05:56.783Z,100100.55
2018-05-31T16:08:25.742Z,100103.72
2018-05-31T16:10:54.690Z,100098.71
2018-05-31T16:13:23.700Z,100096.15
2018-05-31T16:15:52.699Z,100091.75
2018-05-31T16:18:21.733Z,100099.64
2018-05-31T16:20:50.713Z,100087.55
2018-05-31T16:23:19.726Z,100087.13
2018-05-31T16:25:49.451Z,100089.80
2018-05-31T16:28:18.431Z,100078.36
2018-05-31T16:30:47.425Z,100089.31
2018-05-31T16:33:16.761Z,100081.80
2018-05-31T16:35:45.796Z,100092.11
2018-05-31T16:38:14.777Z,100093.30
2018-05-31T16:40:43.801Z,100089.17
2018-05-31T16:43:13.415Z,100087.70
2018-05-31T16:45:42.371Z,100085.26
2018-05-31T16:48:11.327Z,100092.31
2018-05-31T16:50:40.367Z,100089.85
2018-05-31T16:53:09.401Z,100086.66
2018-05-31T16:55:38.850Z,100089.56
2018-05-31T16:58:07.968Z,100085.75
2018-05-31T17:00:36.938Z,100084.35
2018-05-31T17:03:05.938Z,100078.11
2018-05-31T17:05:34.939Z,100078.55
2018-05-31T17:08:03.970Z,100085.30
2018-05-31T17:10:32.982Z,100086.09
2018-05-31T17:13:02.544Z,100083.23
2018-05-31T17:15:32.264Z,100081.35
2018-05-31T17:18:01.307Z,100082.52
2018-05-31T17:20:30.266Z,100081.57
2018-05-31T17:22:59.304Z,100089.34
2018-05-31T17:25:28.275Z,100078.64
2018-05-31T17:27:57.248Z,100087.23
2018-05-31T17:30:26.274Z,100088.33
2018-05-31T17:32:55.315Z,100086.41
2018-05-31T17:35:24.354Z,100092.95
2018-05-31T17:37:53.394Z,100088.86
2018-05-31T17:40:22.379Z,100090.66
2018-05-31T17:42:51.397Z,100094.25
2018-05-31T17:45:21.271Z,100090.44
2018-05-31T17:47:50.295Z,100090.18
2018-05-31T17:50:19.274Z,100093.07
2018-05-31T17:52:48.254Z,100094.58
2018-05-31T17:55:17.380Z,100089.95
2018-05-31T17:57:46.605Z,100089.95
2018-05-31T18:00:15.599Z,100090.48
2018-05-31T18:02:44.716Z,100094.30
2018-05-31T18:05:13.731Z,100095.13
2018-05-31T18:07:42.821Z,100092.70
2018-05-31T18:10:11.845Z,100089.52
2018-05-31T18:12:41.033Z,100097.28
2018-05-31T18:15:10.076Z,100090.75
2018-05-31T18:17:39.100Z,100091.26
2018-05-31T18:20:08.085Z,100090.12
2018-05-31T18:22:37.134Z,100090.84
2018-05-31T18:25:06.234Z,100092.86
2018-05-31T18:27:35.305Z,100097.05
2018-05-31T18:30:04.262Z,100088.61
2018-05-31T18:32:33.346Z,100089.77
2018-05-31T18:35:02.445Z,100091.67
2018-05-31T18:37:31.488Z,100098.56
2018-05-31T18:40:00.752Z,100090.67
2018-05-31T18:42:30.052Z,100095.06
2018-05-31T18:44:59.052Z,100098.22
2018-05-31T18:47:28.151Z,100099.58
2018-05-31T18:49:57.241Z,100103.73
2018-05-31T18:52:27.134Z,100110.84
2018-05-31T18:54:56.504Z,100113.23
2018-05-31T18:57:25.623Z,100120.94
2018-05-31T18:59:54.676Z,100123.58
2018-05-31T19:02:23.967Z,100133.99
2018-05-31T19:04:53.130Z,100135.56
2018-05-31T19:07:21.980Z,100134.63
2018-05-31T19:09:51.098Z,100143.18
2018-05-31T19:12:27.244Z,100144.44
2018-05-31T19:14:56.427Z,100151.34
2018-05-31T19:17:25.968Z,100154.64
2018-05-31T19:19:55.971Z,100163.27
2018-05-31T19:22:26.505Z,100169.97
2018-05-31T19:25:01.182Z,100173.95
2018-05-31T19:27:31.021Z,100181.70
2018-05-31T19:30:06.111Z,100177.14
2018-05-31T19:32:36.931Z,100179.34
2018-05-31T19:35:07.210Z,100181.50
2018-05-31T19:37:38.524Z,100183.98
2018-05-31T19:40:08.339Z,100187.92
2018-05-31T19:42:44.587Z,100186.52
2018-05-31T19:45:15.467Z,100176.82
2018-05-31T19:47:45.943Z,100182.36
2018-05-31T19:50:16.863Z,100185.59
2018-05-31T19:52:53.156Z,100181.19
2018-05-31T19:55:24.328Z,100187.64
2018-05-31T19:58:00.564Z,100186.19
2018-05-31T20:00:36.584Z,100188.70
2018-05-31T20:03:12.382Z,100192.38
2018-05-31T20:05:42.983Z,100193.81
2018-05-31T20:08:13.152Z,100192.70
2018-05-31T20:10:43.312Z,100195.34
2018-05-31T20:13:13.467Z,100195.63
2018-05-31T20:15:45.061Z,100193.61
2018-05-31T20:18:15.626Z,100189.81
2018-05-31T20:20:45.752Z,100191.80
2018-05-31T20:23:16.413Z,100198.87
2018-05-31T20:25:47.037Z,100195.73
2018-05-31T20:28:17.198Z,100195.91
2018-05-31T20:30:47.029Z,100196.31
2018-05-31T20:33:16.945Z,100195.89
2018-05-31T20:35:46.484Z,100199.63
2018-05-31T20:38:15.977Z,100194.48
2018-05-31T20:40:45.275Z,100200.51
2018-05-31T20:43:14.397Z,100195.56
2018-05-31T20:45:44.335Z,100202.77
2018-05-31T20:48:13.443Z,100204.51
2018-05-31T20:50:42.582Z,100202.79
2018-05-31T20:53:11.614Z,100207.46
2018-05-31T20:55:40.988Z,100202.66
2018-05-31T20:58:10.038Z,100203.81
2018-05-31T21:00:39.509Z,100201.55
2018-05-31T21:03:08.735Z,100210.45
2018-05-31T21:05:37.810Z,100211.94
2018-05-31T21:08:07.569Z,100213.08
2018-05-31T21:10:36.521Z,100219.13
2018-05-31T21:13:05.550Z,100223.41
2018-05-31T21:15:34.524Z,100217.48
2018-05-31T21:18:03.270Z,100217.69
2018-05-31T21:20:32.359Z,100216.63
2018-05-31T21:23:01.326Z,100216.83
2018-05-31T21:25:30.329Z,100219.94
2018-05-31T21:27:59.351Z,100222.85
2018-05-31T21:30:28.295Z,100216.05
2018-05-31T21:32:57.655Z,100213.51
2018-05-31T21:35:26.684Z,100212.00
2018-05-31T21:37:55.827Z,100217.39
2018-05-31T21:40:24.853Z,100215.81
2018-05-31T21:42:53.889Z,100214.81
2018-05-31T21:45:23.002Z,100214.50
2018-05-31T21:47:52.096Z,100216.82
2018-05-31T21:50:21.074Z,100209.95
2018-05-31T21:52:50.042Z,100217.70
2018-05-31T21:55:19.124Z,100215.24
2018-05-31T21:57:48.075Z,100219.92
2018-05-31T22:00:32.706Z,100217.11
2018-05-31T22:03:01.650Z,100216.69
2018-05-31T22:05:30.621Z,100215.61
2018-05-31T22:07:59.625Z,100222.83
2018-05-31T22:10:32.905Z,100217.53
2018-05-31T22:13:01.934Z,100215.91
2018-05-31T22:15:31.239Z,100218.51
2018-05-31T22:18:01.142Z,100210.56
2018-05-31T22:20:30.190Z,100213.80
2018-05-31T22:22:59.162Z,100210.86
2018-05-31T22:25:28.139Z,100211.92
2018-05-31T22:27:57.121Z,100212.75
2018-05-31T22:30:26.066Z,100213.18
2018-05-31T22:32:55.075Z,100220.34
2018-05-31T22:35:24.022Z,100216.11
2018-05-31T22:37:52.961Z,100214.76
2018-05-31T22:40:21.985Z,100211.46
2018-05-31T22:42:51.405Z,100208.27
2018-05-31T22:45:20.392Z,100211.69
2018-05-31T22:47:49.500Z,100211.02
2018-05-31T22:50:18.470Z,100214.96
2018-05-31T22:52:47.428Z,100215.56
2018-05-31T22:55:16.391Z,100206.39
2018-05-31T22:57:45.343Z,100203.14
2018-05-31T23:00:13.766Z,100204.00
2018-05-31T23:02:42.736Z,100204.13
2018-05-31T23:05:11.681Z,100200.75
2018-05-31T23:07:40.661Z,100197.70
2018-05-31T23:10:09.618Z,100198.05
2018-05-31T23:12:38.593Z,100193.45
2018-05-31T23:15:07.822Z,100191.91
2018-05-31T23:17:36.793Z,100199.00
2018-05-31T23:20:05.738Z,100196.30
2018-05-31T23:22:34.771Z,100197.66
2018-05-31T23:25:03.717Z,100195.17
2018-05-31T23:27:32.716Z,100189.29
2018-05-31T23:30:01.745Z,100196.45
2018-05-31T23:32:30.784Z,100191.91
2018-05-31T23:34:59.734Z,100191.73
2018-05-31T23:37:28.706Z,100196.66
2018-05-31T23:39:57.661Z,100188.42
2018-05-31T23:42:27.340Z,100185.38
2018-05-31T23:44:56.278Z,100186.03
2018-05-31T23:47:25.211Z,100183.08
2018-05-31T23:49:54.210Z,100178.94
2018-05-31T23:52:23.148Z,100185.92
2018-05-31T23:54:52.115Z,100186.13
2018-05-31T23:57:21.098Z,100196.75
2018-05-31T23:59:50.043Z,100194.98
